Timeline UpdatesTrip UpdatesNews PostsPvt PostsTravel TipsAdmin PostsConv PostsFollowed PostsChat RequestsBlog PostsPNR Posts

Disclaimer
Search
 
 
Thu Apr 24, 2014 19:11:50 ISTHomeTrainsΣChainsAtlasPNRForumGalleryNewsFAQTripsMembersLoginFeedback
No Recent News for this Train
Other Trains in the News **new
Latest...
One Sleeper and unreserved coach for Mumbai is attached from Nandurbar. These coaches are attached to 59442 Ahmedabad Mumbai passenger at Surat.
Mon Apr 18, 2011 (09:18PM)
⇐ Return Journey: Train# 59441-Slip

59076-Slip/Surat Passenger Slip

Jul 01 2013 (11:06PM)
Change Departure Station:
Change Arrival Station:
Post a Train Travel TipPost a Train Travel Tip **new
Post a Comment/Question/Picture/VideoPost a Comment/Question/Picture/Video
Pantry/Catering
???
Loco/Rake Reversals
ST/Surat (4);
RSA - Rake Sharing
Rake/Coach Composition
Loco
News    PNR    Forum    Time-Table    Availability    Fare Chart    Map    Arr/Dep History    Trips    Gallery    ΣChains    X/O    Timeline    
Travel Time: 3h 35m    14 halts    Distance: 115 km    Avg Speed: 32 km/hr
Type: Passenger
Zone: WR/Western
Departs @ 14:30 (Avg 8m late)
Platform# ???
SMTWTFS
Nandurbar/NDB 
Arrives @ 18:05 (Avg 11m late)
Platform# 1
SMTWTFS
Madhi/MID 

14 halts. 15 intermediate Stations between Nandurbar and Madhi

Hide intermediate Stations  Show Old Time-Table

#CodeStation NameX/OArrivesAvgDepartsAvgHaltPFDay#KmSpeedElevZoneAddress
1BSLBhusaval Junction (8)  -08:45+4--1-174.158208mCRBhusaval 425201, Maharashtra
2BDIBhadli (2)  08:58+709:00+72m--1-161.530211mCRBhadli, Maharashtra
2.1TRWTarsodX  09:14-09:14-  1-154.7 30206mCRAsoda - Tarsod Road, Maharashtra
3JLJalgaon Junction (4)  09:23+109:25+52m21-150.037213mCRJalgaon 425001, Maharashtra
4PLDPaldhi (2)  09:43+1409:45+172m--1-138.953208mWRPaldhi, Maharashtra
5CHLKChavalkhedeX  09:58+1810:00+192m--1-127.427196mWRState Highway 185, Maharashtra
6DXGDharangaon  10:16+1510:18+162m--1-120.257217mWRDharangaon, Maharashtra
7BHNEBhone (2)X  10:26+1510:28+142m--1-112.650196mWRState Highway 185, Maharashtra
8TKHETakarkhede (1)  10:35+1410:37+142m11-106.843203mWRState Highway 6, Maharashtra
9ANAmalner (1)  10:53+1310:55+132m11-95.340188mWRAmalner, Maharashtra
10BRTKBhortex  11:07+1311:09+132m--1-87.353180mWRVadhoda, Maharashtra
11PDPPadse  11:18+1311:20+142m--1-79.448181mWRDhule, Maharashtra
12BEWBetavad (1)  11:27+1411:29+132m11-73.858178mWRState Highway 6, Maharashtra
13NDNNardana (1)  11:36+1311:38+132m11-67.042184mWRNardana, Maharashtra
14HOLHol (1)  11:45+1411:47+142m11-62.163185mWRState Highway 6, Maharashtra
15SNKSindkheda (1)X  11:55+1611:57+172m11-53.843178mWRState Highway 11, Maharashtra
16SNSLSonshelu (1)  12:06+1612:08+152m11-47.348185mWRMSH1, Maharashtra
17VKHVikhran (1)X  12:14+1512:16+162m11-42.533176mWRMSH1, Maharashtra
18DDEDondaicha (2)  12:31+1012:33+122m11-34.455163mWRDondaicha, Maharashtra
19RNLRanala (1)X  12:46+1012:48+152m11-22.433164mWRState Highway 6, Maharashtra
20TISITisi (1)X  13:05+813:07+92m11-12.920185mWRState Highway 7, Maharashtra
20.1CUEChoupale (1)O  13:30-13:30-  1-5.1 20208mWRNehru Nagar, Maharashtra
21NDB»Nandurbar (3)»X  13:45-214:30+845m--10.060203mWRNandurbar, Maharashtra
22DWDDhekwad (1)  14:39+1214:41+142m119.048209mWRState Highway 5, Maharashtra
22.1BAWDBhadwad (1)  14:50-14:50-  115.9 48212mWRBhadwad, Maharashtra
23KBHKhandbara (1)X  14:58+2115:00+222m1122.653198mWRKhandbara, Maharashtra
24KHTGKhatgaon (1)  15:10+2415:12+272m1131.453178mWRState Highway 5, Maharashtra
25CPDChinchpada (1)  15:23+2715:25+302m1141.248178mWRGangapur, Maharashtra
26KFFKolda (1)  15:33+3115:35+312m1147.539160mWRGangapur, Maharashtra
27NWUNavapur (2)  15:51+2615:53+272m--157.955124mWRNavapur, Gujarat
28BBAIBhadbhunja (1)  16:05+2716:07+262m1169.025126mWRGujarat 394375 ?, Gujarat
29LKKDLakkad Kot (1)  16:19+2416:21+242m1173.936122mWRGujarat 394375 ?, Gujarat
30USDUkai Songadh (2)  16:33+2416:35+252m1181.239139mWRSongadh, Gujarat
31DSDDosvada (1)  16:42+2516:44+242m1185.817121mWRNational Highway 6, Gujarat
32KKRDKikakui Road (1)O  16:53+2316:55+272m1188.316114mWRGujarat 394650 ?, Gujarat
33VYAVyara (2)  17:38+617:40+72m1199.94390mWRVyara, Gujarat
34LTVLotarva (1)  17:49+817:51+112m11106.34657mWRSankr Main Rd, Gujarat
35KRAIKaher (1)X  17:55+1217:57+112m11109.44055mWRKaher, Gujarat
36MID•Madhi (1)•  18:05+1118:07+142m11114.83245mWRMadhi, Gujarat
37MGRLMangrolla (1)  18:17+1118:19+102m11120.13336mWRPipariya, Gujarat
38TBVTimbarva (1)X  18:24+1118:26+112m11122.83435mWRTimberva, Gujarat
39BIYBardoli (2)  18:38+918:40+142m--1129.62135mWRNear Bardoli Sugar Factory Bardoli, Gujarat
40GGARGangadhara (1)X  18:58+519:00+132m11135.82027mWRKareli, Gujarat
40.1BGMRBagumra (1)  19:16-19:16-  1140.9 2022mWRNational Highway 6, Gujarat
41CHMChalthan (1)  19:29+119:31+42m11145.35023mWRKadodra, Gujarat
42NOLNiyol (1)  19:37+2019:39+572m11150.32818mWRSurat, Gujarat
43UDNUdhna Junction (3)XO  19:53-19:55-2m21156.81616mWRUdhna 394210, Gujarat
44STSurat (4)XOO20:10+2621:30+2:3080m41160.83819mWRSurat 395001, Gujarat
44.1UDNUdhna Junction (3)  21:36-21:36-  1164.8 3816mWRUdhna 394210, Gujarat
45BHETBhestan (2)X  21:44-21:46-2m21169.64913mWRSurat, Gujarat
46SCHSachin (3)XO  21:53-21:55-2m--1175.36611mWRKansad Road Sachin, Gujarat
47MRLMaroli (3)X  22:01-22:03-2m--1182.06315mWRMaroli, Gujarat
48NVSNavsari (3)X  22:11-22:13-2m--1190.44614mWRNavsari, Gujarat
48.1GNSTGandhi Smriti (2)O  22:17-22:17-  1193.4 4616mWRGandhi Smriti Navsari, Gujarat
48.2HXRHansapore (2)X  22:19-22:19-  1195.0 4615mWRHansapore, Gujarat
49VDHVedchha (3)XO  22:24-22:26-2m--1198.95113mWRNavsari, Gujarat
50ACLAncheli (2)X  22:30-22:32-2m--1202.24620mWRNavsari, Gujarat
51AMLAmalsad (3)  22:37-22:39-2m--1206.05612mWRAmalsad, Gujarat
52BIMBilimora Junction (4)O  22:45-22:47-2m--1211.66811mWRBilimora, Gujarat
52.1JRSJoravasan (2)X  22:50-22:50-  1215.6 6815mWRJoravasan, Gujarat
53DGIDungri (3)X  22:55-22:57-2m--1220.62320mWRNH 8, Gujarat
54BLValsad (3)X  23:20-23:30-10m--1229.56415mWRValsad, Gujarat
54.1ATULAtul (3)  23:36-23:36-  1236.2 6422mWRValsad, Gujarat
55PADPardi (3)X  23:40-23:42-2m--1240.26019mWRValsad, Gujarat
56UVDUdvada (3)  23:48-23:50-2m--1246.25218mWRUdvada, Gujarat
56.1BAGDBagwada (2)  23:53-23:53-  1249.1 5222mWRNH8, Gujarat
57VAPIVapi (3)XO  00:01-00:02-1m--2255.84827mWRVapi, Gujarat
58KEBKarambeli (2)  00:10-00:11-1m--2262.24829mWRNational Highway 8, Gujarat
59BLDBhilad (3)X  00:17-00:19-2m--2267.16933mWRBhilad, Gujarat
60SJNSanjan (3)X  00:29-00:31-2m--2278.65422mWRSanjan, Gujarat
61UBRUmbargam Road (3)X  00:37-00:39-2m--2284.06130mWRUmbergaon, Gujarat
61.1BRRDBordi Road (2)XO  00:43-00:43-  2288.2 6117mWRBordi, Maharashtra
62GVDGholvad (4)XO  00:48-00:50-2m--2293.14214mWRGholvad, Maharashtra
63DRDDahanu Road (5)XO  01:06-01:08-2m--2304.35712mWRDahanu, Maharashtra
64VGNVangaon (3)XO  01:21-01:23-2m--2316.66311mWRThane, Maharashtra
65BORBoisar (3)X  01:32-01:34-2m32326.04817mWRBoisar Tel.no-02525-266626, Maharashtra
65.1UOIUmroli (2)XO  01:40-01:40-  2330.9 488mWRBoisar, Maharashtra
66PLGPalghar (3)  01:48-01:50-2m--2337.34619mWRPalghar, Maharashtra
67KLVKelve Road (3)O  02:01-02:03-2m--2345.74310mWRThane, Maharashtra
68SAHSaphale (2)O  02:12-02:14-2m22352.1348mWRThane, Maharashtra
68.1VTNVaitarna (2)  02:28-02:28-  2359.9 343mWRThane, Maharashtra
69VRVirar (8)  02:43-02:45-2m--2368.4286mWRThane, Maharashtra
69.1NSPNallasopara (4)O  02:54-02:54-  2372.6 285mWRNallasopara station Rd, Maharashtra
70BSRVasai Road (7)  03:03-03:05-2m52376.9587mWRThane-401202, Maharashtra
70.1NIGNaigaon (4)  03:09-03:09-  2380.6 585mWRNaigaon West, Maharashtra
70.2BYRBhayandar (6)  03:14-03:14-  2385.3 586mWRThane, Maharashtra
70.3MIRAMira Road (4)  03:17-03:17-  2388.5 583mWRMira Bhayandar, Maharashtra
70.4DICDahisar (4)  03:21-03:21-  2391.9 5814mWRMumbai, Maharashtra
71BVIMumbai Borivali (8)  03:23-03:25-2m52394.33719mWRMumbai - 400092, Maharashtra
71.1KILEKandivli (4)  03:29-03:29-  2397.0 3714mWRMumbai, Maharashtra
71.2MDDMalad (4)O  03:33-03:33-  2399.1 3718mWRMumbai-400064, Maharashtra
71.3GMNGoregaon (5)  03:37-03:37-  2401.5 3715mWRMumbai - 400104, Maharashtra
71.4JOSJogeshwari (4)  03:42-03:42-  2404.6 3714mWRMumbai, Maharashtra
71.5ADHMumbai Andheri (9)  03:45-03:45-  2406.8 3712mWRMumbai, Maharashtra
71.6VLPVille Parle (6)  03:48-03:48-  2408.8 3711mWRMumbai, Maharashtra
71.7STCSanta Cruz (6)O  03:51-03:51-  2410.7 3710mWRMumbai, Maharashtra
71.8KHARKhar (6)  03:54-03:54-  2412.1 377mWRMumbai, Maharashtra
71.9BDTSMumbai Bandra Terminus (5)  03:55-03:55-  2413.0 374mWRMumbai 400050, Maharashtra
71.10BABandra (7)O  03:56-03:56-  2413.8 376mWRMumbai, Maharashtra
71.11MMMumbai Mahim Junction (6)  03:59-03:59-  2415.5 375mWRMumbai, Maharashtra
71.12MRUMumbai Matunga Road (2)  04:01-04:01-  2416.7 377mWRMumbai, Maharashtra
72DDRMumbai Dadar Western (6)  04:03-04:05-2m52418.0126mWRMumbai, Maharashtra
72.1EPRMumbai Elphinstone Road (2)  04:13-04:13-  2419.5 124mWRMumbai, Maharashtra
72.2PLMumbai Lower Parel (3)  04:20-04:20-  2421.0 125mWRMumbai, Maharashtra
72.3MXMumbai Mahalakshmi (2)  04:28-04:28-  2422.6 123mWRMumbai, Maharashtra
73BCTMumbai Central (9)  04:35--52423.9-3mWRMumbai-400 008, Maharashtra
Scroll to Top
Scroll to Bottom